Time;durP1;ratioP1;P1;durP2;ratioP2;P2;SDS_P1;SDS_P2;PMS_P1;PMS_P2;Temp;Humidity;BMP_temperature;BMP_pressure;BME280_temperature;BME280_humidity;BME280_pressure;Samples;Min_cycle;Max_cycle;Signal;HPM_P1;HPM_P2
2023/12/10 07:46:29;;;;;;;;;;;;;;;9.78;76.92;97161.84;4247119;27;10305;-63
2023/12/10 07:48:33;;;;;;;;;;;;;;;10.08;76.40;97169.78;4226925;28;5738;-62
2023/12/10 07:50:36;;;;;;;;;;;;;;;10.31;75.48;97167.94;4225087;28;5604;-62
2023/12/10 07:52:39;;;;;;;;;;;;;;;10.50;75.10;97167.38;4231767;28;5108;-63
2023/12/10 07:54:41;;;;;;;;;;;;;;;10.65;74.28;97171.84;4228456;28;6289;-63
2023/12/10 07:56:44;;;;;;;;;;;;;;;10.75;74.28;97164.41;4231154;28;6551;-63
2023/12/10 07:58:47;;;;;;;;;;;;;;;10.85;73.41;97156.19;4230890;28;5793;-63
2023/12/10 08:00:49;;;;;;;;;;;;;;;10.94;73.01;97157.72;4231545;28;6060;-64
2023/12/10 08:02:54;;;;;;;;;;;;;;;11.01;73.01;97162.09;4231403;28;5508;-63
2023/12/10 08:04:57;;;;;;;;;;;;;;;11.07;72.53;97161.34;4230088;28;6439;-64
2023/12/10 08:07:01;;;;;;;;;;;;;;;11.14;72.48;97166.72;4229512;28;5516;-64
2023/12/10 08:09:04;;;;;;;;;;;;;;;11.21;72.16;97169.41;4228759;28;5679;-62
2023/12/10 08:11:07;;;;;;;;;;;;;;;11.26;71.92;97169.69;4226555;28;5612;-64
2023/12/10 08:13:10;;;;;;;;;;;;;;;11.28;71.30;97163.19;4220984;28;6348;-63
2023/12/10 08:15:13;;;;;;;;;;;;;;;11.33;71.34;97165.28;4224218;28;5712;-63
2023/12/10 08:17:16;;;;;;;;;;;;;;;11.36;70.91;97163.06;4218621;28;5634;-63
2023/12/10 08:19:21;;;;;;;;;;;;;;;11.38;70.85;97170.81;4221117;28;5733;-63
2023/12/10 08:21:24;;;;;;;;;;;;;;;11.41;70.51;97178.38;4225500;28;5690;-63
2023/12/10 08:23:27;;;;;;;;;;;;;;;11.42;70.16;97179.19;4218226;28;5623;-62
2023/12/10 08:25:30;;;;;;;;;;;;;;;11.43;69.94;97175.53;4217835;28;5615;-63
2023/12/10 08:27:34;;;;;;;;;;;;;;;11.45;70.15;97184.97;4230018;28;6435;-64
2023/12/10 08:29:37;;;;;;;;;;;;;;;11.47;69.54;97175.00;4226900;28;6419;-63
2023/12/10 08:31:40;;;;;;;;;;;;;;;11.51;69.79;97176.25;4221862;28;5718;-64
2023/12/10 08:33:45;;;;;;;;;;;;;;;11.55;69.72;97185.47;4228161;28;5702;-63
2023/12/10 08:35:50;;;;;;;;;;;;;;;11.59;69.28;97186.72;4220360;28;5944;-62
2023/12/10 08:37:53;;;;;;;;;;;;;;;11.64;69.23;97199.38;4225709;28;5611;-63
2023/12/10 08:39:55;;;;;;;;;;;;;;;11.67;69.16;97193.72;4230591;28;5612;-63
2023/12/10 08:41:58;;;;;;;;;;;;;;;11.70;68.80;97189.88;4224630;28;5698;-63
2023/12/10 08:44:01;;;;;;;;;;;;;;;11.71;68.50;97183.56;4224741;28;5626;-63
2023/12/10 08:46:05;;;;;;;;;;;;;;;11.70;68.65;97190.69;4220588;28;5695;-63
2023/12/10 08:48:08;;;;;;;;;;;;;;;11.70;68.34;97187.22;4216734;28;5748;-63
2023/12/10 08:50:13;;;;;;;;;;;;;;;11.70;68.25;97182.75;4213905;28;5726;-64
2023/12/10 08:52:17;;;;;;;;;;;;;;;11.73;68.25;97184.19;4212922;28;5756;-64
2023/12/10 08:54:20;;;;;;;;;;;;;;;11.76;67.98;97186.44;4209038;28;5626;-62
2023/12/10 08:56:25;;;;;;;;;;;;;;;11.76;67.79;97203.16;4209460;28;5623;-63
2023/12/10 08:58:29;;;;;;;;;;;;;;;11.77;67.95;97204.78;4215979;28;5632;-64
2023/12/10 09:00:32;;;;;;;;;;;;;;;11.77;67.65;97218.03;4216340;28;5646;-64
2023/12/10 09:02:35;;;;;;;;;;;;;;;11.78;67.76;97217.03;4215980;28;5628;-64
2023/12/10 09:04:38;;;;;;;;;;;;;;;11.78;67.69;97213.53;4211315;28;5668;-69
2023/12/10 09:06:41;;;;;;;;;;;;;;;11.77;67.21;97228.63;4202821;28;5618;-69
2023/12/10 09:08:46;;;;;;;;;;;;;;;11.77;67.31;97219.84;4206062;28;5944;-70
2023/12/10 09:10:49;;;;;;;;;;;;;;;11.77;66.99;97225.16;4215949;28;6873;-69
2023/12/10 09:12:52;;;;;;;;;;;;;;;11.78;66.96;97224.16;4215830;28;5640;-70
2023/12/10 09:14:55;;;;;;;;;;;;;;;11.82;67.02;97230.75;4219042;28;5772;-69
2023/12/10 09:16:58;;;;;;;;;;;;;;;11.88;67.12;97232.63;4215406;28;5810;-69
2023/12/10 09:19:01;;;;;;;;;;;;;;;11.91;66.73;97237.56;4209889;28;5617;-69
2023/12/10 09:21:05;;;;;;;;;;;;;;;11.95;66.55;97233.50;4218669;28;5523;-69
2023/12/10 09:23:08;;;;;;;;;;;;;;;11.98;66.38;97233.13;4217638;28;5821;-69
2023/12/10 09:25:12;;;;;;;;;;;;;;;12.02;65.94;97239.69;4214162;28;5620;-70
2023/12/10 09:27:15;;;;;;;;;;;;;;;12.05;65.55;97243.78;4218831;28;5796;-70
2023/12/10 09:29:18;;;;;;;;;;;;;;;12.08;64.93;97248.69;4218971;28;5640;-69
2023/12/10 09:31:21;;;;;;;;;;;;;;;12.10;65.09;97247.50;4218854;28;5737;-70
2023/12/10 09:33:24;;;;;;;;;;;;;;;12.11;64.56;97259.72;4218694;28;6313;-70
2023/12/10 09:35:27;;;;;;;;;;;;;;;12.11;64.46;97256.25;4218556;28;5846;-70
2023/12/10 09:37:29;;;;;;;;;;;;;;;12.11;63.43;97248.31;4218595;28;5699;-70
2023/12/10 09:39:32;;;;;;;;;;;;;;;12.11;63.38;97249.13;4217149;28;5608;-71
2023/12/10 09:41:36;;;;;;;;;;;;;;;12.14;62.46;97254.06;4211480;28;5822;-70
2023/12/10 09:43:38;;;;;;;;;;;;;;;12.18;62.69;97249.19;4212063;28;5604;-70
2023/12/10 09:45:42;;;;;;;;;;;;;;;12.17;63.07;97250.22;4216049;28;5615;-71
2023/12/10 09:47:47;;;;;;;;;;;;;;;12.19;62.61;97249.00;4201766;28;5846;-70
2023/12/10 09:49:53;;;;;;;;;;;;;;;12.18;62.74;97244.72;4201915;28;5631;-70
2023/12/10 09:51:56;;;;;;;;;;;;;;;12.17;62.55;97243.06;4200017;28;5620;-70
2023/12/10 09:53:59;;;;;;;;;;;;;;;12.18;62.64;97246.53;4204254;28;5690;-70
2023/12/10 09:56:03;;;;;;;;;;;;;;;12.18;62.59;97238.59;4201018;28;5622;-70
2023/12/10 09:58:07;;;;;;;;;;;;;;;12.16;62.66;97241.44;4203132;28;5835;-70
2023/12/10 10:00:11;;;;;;;;;;;;;;;12.17;62.18;97242.25;4203470;28;5636;-69
2023/12/10 10:02:15;;;;;;;;;;;;;;;12.17;62.55;97244.91;4205390;28;5751;-70
2023/12/10 10:04:18;;;;;;;;;;;;;;;12.20;62.50;97247.16;4205254;28;5792;-70
2023/12/10 10:06:22;;;;;;;;;;;;;;;12.21;62.58;97248.81;4207665;28;5815;-70
2023/12/10 10:08:24;;;;;;;;;;;;;;;12.24;62.44;97245.78;4195651;28;5836;-70
2023/12/10 10:10:27;;;;;;;;;;;;;;;12.23;62.30;97244.97;4198738;28;5762;-70
2023/12/10 10:12:31;;;;;;;;;;;;;;;12.26;62.54;97238.47;4202076;28;5714;-70
2023/12/10 10:14:40;;;;;;;;;;;;;;;12.26;62.43;97233.16;4207835;28;5828;-70
2023/12/10 10:16:48;;;;;;;;;;;;;;;12.29;62.27;97239.91;4209801;28;5729;-70
2023/12/10 10:18:50;;;;;;;;;;;;;;;12.31;62.46;97244.00;4218298;28;5611;-71
2023/12/10 10:20:53;;;;;;;;;;;;;;;12.27;62.07;97241.94;4205710;28;5651;-69
2023/12/10 10:22:57;;;;;;;;;;;;;;;12.26;61.97;97235.81;4196969;28;5751;-70
2023/12/10 10:25:00;;;;;;;;;;;;;;;12.25;62.26;97234.16;4195495;28;5828;-71
2023/12/10 10:27:03;;;;;;;;;;;;;;;12.25;62.18;97226.22;4200865;28;5651;-70
2023/12/10 10:29:08;;;;;;;;;;;;;;;12.26;61.77;97227.03;4209087;28;5846;-69
2023/12/10 10:31:12;;;;;;;;;;;;;;;12.30;62.09;97225.63;4199060;28;5644;-69
2023/12/10 10:33:15;;;;;;;;;;;;;;;12.33;62.01;97225.22;4202212;28;5899;-70
2023/12/10 10:35:19;;;;;;;;;;;;;;;12.35;62.03;97228.53;4200855;28;5623;-70
2023/12/10 10:37:21;;;;;;;;;;;;;;;12.37;62.03;97218.56;4208562;28;5637;-70
2023/12/10 10:39:24;;;;;;;;;;;;;;;12.36;62.10;97208.97;4206580;28;5604;-71
2023/12/10 10:41:27;;;;;;;;;;;;;;;12.34;61.89;97206.47;4196784;28;5567;-70
2023/12/10 10:43:30;;;;;;;;;;;;;;;12.26;61.65;97208.47;4200428;28;7676;-70
2023/12/10 10:45:33;;;;;;;;;;;;;;;12.17;61.59;97200.66;4208598;28;5608;-71
2023/12/10 10:47:38;;;;;;;;;;;;;;;12.13;61.93;97196.78;4200696;28;5651;-69
2023/12/10 10:49:46;;;;;;;;;;;;;;;12.12;62.02;97199.63;4194142;28;5719;-71
2023/12/10 10:52:14;;;;;;;;;;;;;;;12.11;62.04;97198.78;4191019;28;5626;-71
2023/12/10 10:54:17;;;;;;;;;;;;;;;12.13;62.05;97188.81;4188928;28;5749;-70
2023/12/10 10:56:20;;;;;;;;;;;;;;;12.16;61.79;97199.03;4207249;28;6301;-69
2023/12/10 10:58:23;;;;;;;;;;;;;;;12.16;61.70;97196.38;4199299;28;5641;-70
2023/12/10 11:00:36;;;;;;;;;;;;;;;12.12;61.68;97202.28;4194909;28;5635;-71
2023/12/10 11:02:42;;;;;;;;;;;;;;;12.14;61.84;97206.34;4189872;28;5631;-70
2023/12/10 11:04:47;;;;;;;;;;;;;;;12.15;61.93;97197.41;4200256;28;5845;-70
2023/12/10 11:06:51;;;;;;;;;;;;;;;12.15;61.81;97192.09;4198394;28;5663;-70
2023/12/10 11:08:58;;;;;;;;;;;;;;;12.16;61.88;97187.63;4195796;28;5627;-70
2023/12/10 11:11:01;;;;;;;;;;;;;;;12.18;62.16;97191.69;4195647;28;5634;-71
2023/12/10 11:13:04;;;;;;;;;;;;;;;12.17;61.88;97184.75;4205463;28;5663;-71
2023/12/10 11:15:21;;;;;;;;;;;;;;;12.20;61.93;97194.97;4198043;28;5718;-71
2023/12/10 11:17:25;;;;;;;;;;;;;;;12.20;62.12;97194.97;4203479;28;5612;-71
2023/12/10 11:19:31;;;;;;;;;;;;;;;12.22;61.88;97192.94;4200269;28;5638;-70
2023/12/10 11:21:34;;;;;;;;;;;;;;;12.24;62.21;97190.13;4194224;28;5730;-70
2023/12/10 11:23:37;;;;;;;;;;;;;;;12.24;62.09;97180.34;4193997;28;5822;-70
2023/12/10 11:25:41;;;;;;;;;;;;;;;12.27;61.73;97183.59;4193748;28;5773;-70
2023/12/10 11:27:44;;;;;;;;;;;;;;;12.28;61.78;97179.94;4195863;28;5666;-70
2023/12/10 11:29:47;;;;;;;;;;;;;;;12.29;62.22;97170.97;4196547;28;5627;-69
2023/12/10 11:31:50;;;;;;;;;;;;;;;12.31;62.05;97166.28;4194379;28;5827;-70
2023/12/10 11:33:52;;;;;;;;;;;;;;;12.34;61.93;97157.94;4189409;28;5710;-70
2023/12/10 11:35:57;;;;;;;;;;;;;;;12.35;61.90;97152.47;4203942;28;5683;-70
2023/12/10 11:38:20;;;;;;;;;;;;;;;12.35;62.07;97149.00;4190145;28;5729;-70
2023/12/10 11:40:22;;;;;;;;;;;;;;;12.30;61.79;97144.25;4194636;28;5650;-70
2023/12/10 11:42:26;;;;;;;;;;;;;;;12.26;61.74;97144.88;4190691;28;5645;-71
2023/12/10 11:44:30;;;;;;;;;;;;;;;12.23;62.13;97141.59;4191530;28;5620;-70
2023/12/10 11:46:33;;;;;;;;;;;;;;;12.24;61.88;97137.94;4197094;28;5638;-70
2023/12/10 11:48:47;;;;;;;;;;;;;;;12.30;61.87;97132.84;4216575;28;5712;-71
2023/12/10 11:50:50;;;;;;;;;;;;;;;12.34;61.80;97136.72;4214601;28;5613;-70
2023/12/10 11:52:55;;;;;;;;;;;;;;;12.35;61.81;97154.31;4208417;28;5504;-70
2023/12/10 11:54:56;;;;;;;;;;;;;;;12.33;62.09;97143.03;4210379;28;6241;-69
2023/12/10 11:57:00;;;;;;;;;;;;;;;12.30;61.80;97146.09;4208510;28;5604;-69
2023/12/10 11:59:03;;;;;;;;;;;;;;;12.27;61.74;97149.16;4216815;28;5636;-70
2023/12/10 12:01:08;;;;;;;;;;;;;;;12.23;62.07;97146.91;4210017;28;5734;-68
2023/12/10 12:03:11;;;;;;;;;;;;;;;12.27;62.12;97130.59;4190550;28;5632;-70
2023/12/10 12:05:16;;;;;;;;;;;;;;;12.30;61.93;97119.59;4211222;28;6437;-69
2023/12/10 12:07:23;;;;;;;;;;;;;;;12.33;61.75;97120.00;4213220;28;5609;-69
2023/12/10 12:09:27;;;;;;;;;;;;;;;12.34;61.90;97115.53;4215925;28;5712;-70
2023/12/10 12:11:30;;;;;;;;;;;;;;;12.35;61.95;97117.19;4203944;28;5659;-71
2023/12/10 12:13:33;;;;;;;;;;;;;;;12.31;61.86;97116.75;4211257;28;5073;-68
2023/12/10 12:15:36;;;;;;;;;;;;;;;12.31;61.67;97106.13;4214532;28;5616;-68
2023/12/10 12:17:40;;;;;;;;;;;;;;;12.30;61.74;97103.69;4212004;28;5615;-69
2023/12/10 12:19:44;;;;;;;;;;;;;;;12.32;61.64;97101.66;4214864;28;5745;-71
2023/12/10 12:21:46;;;;;;;;;;;;;;;12.35;61.91;97088.84;4206057;28;5152;-67
2023/12/10 12:23:49;;;;;;;;;;;;;;;12.39;61.87;97082.13;4215434;28;7703;-69
2023/12/10 12:25:53;;;;;;;;;;;;;;;12.41;61.67;97080.09;4214206;28;5672;-69
2023/12/10 12:27:56;;;;;;;;;;;;;;;12.44;61.71;97081.50;4216947;28;7508;-69
2023/12/10 12:29:59;;;;;;;;;;;;;;;12.46;61.55;97066.25;4215737;28;5808;-68
2023/12/10 12:32:02;;;;;;;;;;;;;;;12.46;61.60;97063.59;4211082;28;5632;-69
2023/12/10 12:34:26;;;;;;;;;;;;;;;12.47;61.56;97057.28;4218518;28;5733;-71
2023/12/10 12:36:29;;;;;;;;;;;;;;;12.50;61.39;97060.34;4206644;28;6454;-69
2023/12/10 12:38:32;;;;;;;;;;;;;;;12.49;61.20;97050.75;4219208;28;5512;-68
2023/12/10 12:40:35;;;;;;;;;;;;;;;12.48;61.49;97056.25;4215319;28;5232;-68
2023/12/10 12:42:39;;;;;;;;;;;;;;;12.49;61.48;97050.75;4214900;28;5716;-70
2023/12/10 12:44:43;;;;;;;;;;;;;;;12.49;61.41;97041.97;4218341;28;5856;-70
2023/12/10 12:46:46;;;;;;;;;;;;;;;12.50;61.31;97046.25;4195945;28;6463;-69
2023/12/10 12:48:50;;;;;;;;;;;;;;;12.50;61.10;97040.97;4200221;28;5834;-70
2023/12/10 12:50:53;;;;;;;;;;;;;;;12.49;61.12;97041.97;4196019;28;5628;-69
2023/12/10 12:52:57;;;;;;;;;;;;;;;12.48;61.13;97043.00;4193616;28;6806;-69
2023/12/10 12:55:01;;;;;;;;;;;;;;;12.50;61.10;97033.00;4197379;28;5731;-68
2023/12/10 12:57:04;;;;;;;;;;;;;;;12.50;60.92;97033.00;4194240;28;6368;-68
2023/12/10 12:59:09;;;;;;;;;;;;;;;12.50;60.63;97030.34;4198851;28;6424;-71
2023/12/10 13:01:12;;;;;;;;;;;;;;;12.48;60.77;97027.09;4202775;28;5647;-69
2023/12/10 13:03:15;;;;;;;;;;;;;;;12.49;60.76;97031.38;4195106;28;6506;-69
2023/12/10 13:05:18;;;;;;;;;;;;;;;12.49;60.53;97023.41;4184399;28;5677;-69
2023/12/10 13:07:21;;;;;;;;;;;;;;;12.46;60.40;97022.00;4203276;28;5802;-69
2023/12/10 13:09:25;;;;;;;;;;;;;;;12.46;60.54;97015.88;4210045;28;7205;-68
2023/12/10 13:11:28;;;;;;;;;;;;;;;12.47;60.56;97009.53;4208504;28;5627;-70
2023/12/10 13:13:31;;;;;;;;;;;;;;;12.51;60.19;97008.13;4212492;28;5643;-69
2023/12/10 13:15:35;;;;;;;;;;;;;;;12.48;60.25;97001.38;4182876;28;6344;-68
2023/12/10 13:17:38;;;;;;;;;;;;;;;12.48;60.08;97001.38;4202548;28;5630;-69
2023/12/10 13:19:42;;;;;;;;;;;;;;;12.48;60.04;97001.38;4202844;28;5645;-71
2023/12/10 13:21:45;;;;;;;;;;;;;;;12.51;60.09;96989.56;4207239;28;5943;-68
2023/12/10 13:23:48;;;;;;;;;;;;;;;12.54;60.21;96978.53;4201216;28;5619;-68
2023/12/10 13:25:51;;;;;;;;;;;;;;;12.59;60.07;96986.72;4186767;28;5959;-70
2023/12/10 13:27:54;;;;;;;;;;;;;;;12.62;59.84;96977.53;4191536;28;5825;-68
2023/12/10 13:29:57;;;;;;;;;;;;;;;12.63;60.12;96985.28;4188446;28;5634;-69
2023/12/10 13:32:02;;;;;;;;;;;;;;;12.66;59.84;96979.59;4200024;28;5790;-66
2023/12/10 13:34:06;;;;;;;;;;;;;;;12.68;59.99;96972.22;4201710;28;5720;-67
2023/12/10 13:36:09;;;;;;;;;;;;;;;12.69;59.77;96978.38;4201594;28;5651;-66
2023/12/10 13:38:13;;;;;;;;;;;;;;;12.70;59.75;96977.38;4207370;28;5615;-67
2023/12/10 13:40:16;;;;;;;;;;;;;;;12.71;59.96;96979.81;4202681;28;5623;-66
2023/12/10 13:42:19;;;;;;;;;;;;;;;12.71;59.67;96977.16;4203222;28;5670;-66
2023/12/10 13:44:23;;;;;;;;;;;;;;;12.72;59.88;96984.09;4205822;28;5679;-67
2023/12/10 13:46:27;;;;;;;;;;;;;;;12.74;59.63;96989.19;4210172;28;5597;-66
2023/12/10 13:48:32;;;;;;;;;;;;;;;12.75;59.46;96975.72;4209157;28;5815;-67
2023/12/10 13:50:37;;;;;;;;;;;;;;;12.74;59.51;96974.09;4207587;28;5612;-68
2023/12/10 13:52:40;;;;;;;;;;;;;;;12.77;59.48;96972.88;4210771;28;5636;-70
2023/12/10 13:54:43;;;;;;;;;;;;;;;12.78;59.53;96982.44;4216352;28;5702;-69
2023/12/10 13:56:46;;;;;;;;;;;;;;;12.78;59.68;96985.09;4213942;28;5896;-62
2023/12/10 13:58:53;;;;;;;;;;;;;;;12.78;59.40;96979.81;4211570;28;6515;-63
2023/12/10 14:00:56;;;;;;;;;;;;;;;12.76;59.47;96977.34;4206959;28;5867;-65
2023/12/10 14:02:58;;;;;;;;;;;;;;;12.77;59.32;96971.03;4207771;28;6364;-67
2023/12/10 14:05:03;;;;;;;;;;;;;;;12.78;59.23;96975.31;4207729;28;7064;-65
2023/12/10 14:07:07;;;;;;;;;;;;;;;12.79;58.79;96963.69;4208839;28;8597;-65
2023/12/10 14:09:11;;;;;;;;;;;;;;;12.79;59.02;96954.91;4208741;28;5763;-64
2023/12/10 14:11:14;;;;;;;;;;;;;;;12.78;58.65;96954.09;4212508;28;5615;-65
2023/12/10 14:13:17;;;;;;;;;;;;;;;12.77;58.79;96956.94;4211899;28;5535;-64
2023/12/10 14:15:20;;;;;;;;;;;;;;;12.76;58.63;96956.13;4216488;28;5724;-67
2023/12/10 14:17:23;;;;;;;;;;;;;;;12.78;58.67;96954.09;4215838;28;5694;-66
2023/12/10 14:19:26;;;;;;;;;;;;;;;12.76;58.70;96960.63;4216305;28;5691;-66
2023/12/10 14:21:31;;;;;;;;;;;;;;;12.75;58.40;96946.53;4213094;28;6273;-67
2023/12/10 14:23:35;;;;;;;;;;;;;;;12.76;58.75;96940.22;4214197;28;5620;-69
2023/12/10 14:25:38;;;;;;;;;;;;;;;12.77;58.57;96927.78;4215770;28;5073;-65
2023/12/10 14:27:46;;;;;;;;;;;;;;;12.77;58.29;96922.47;4212655;28;5917;-69
2023/12/10 14:29:48;;;;;;;;;;;;;;;12.77;58.37;96920.63;4213881;28;5635;-65
2023/12/10 14:31:51;;;;;;;;;;;;;;;12.76;58.62;96915.53;4215793;28;5683;-67
2023/12/10 14:33:54;;;;;;;;;;;;;;;12.76;58.30;96911.03;4216892;28;5536;-65
2023/12/10 14:35:58;;;;;;;;;;;;;;;12.76;58.31;96921.66;4216156;28;5607;-65
2023/12/10 14:38:02;;;;;;;;;;;;;;;12.78;58.31;96932.06;4215662;28;5822;-67
2023/12/10 14:40:06;;;;;;;;;;;;;;;12.77;58.47;96931.25;4213307;28;6356;-69
2023/12/10 14:42:10;;;;;;;;;;;;;;;12.77;58.29;96930.41;4215490;28;5724;-68
2023/12/10 14:44:13;;;;;;;;;;;;;;;12.76;58.36;96940.22;4214182;28;5702;-68
2023/12/10 14:46:16;;;;;;;;;;;;;;;12.76;58.24;96934.91;4206111;28;5706;-71
2023/12/10 14:48:19;;;;;;;;;;;;;;;12.76;58.22;96934.91;4208235;28;5807;-73
2023/12/10 14:50:22;;;;;;;;;;;;;;;12.75;58.34;96935.94;4214399;28;5814;-72
2023/12/10 14:52:25;;;;;;;;;;;;;;;12.75;58.17;96943.06;4211291;28;5723;-73
2023/12/10 14:54:29;;;;;;;;;;;;;;;12.75;58.08;96935.13;4210725;28;5709;-68
2023/12/10 14:56:31;;;;;;;;;;;;;;;12.73;58.15;96930.03;4210874;28;5706;-68
2023/12/10 14:58:34;;;;;;;;;;;;;;;12.73;58.28;96937.16;4206207;28;5927;-67
2023/12/10 15:00:37;;;;;;;;;;;;;;;12.73;57.83;96948.59;4213505;28;5722;-80
2023/12/10 15:02:40;;;;;;;;;;;;;;;12.72;58.13;96943.50;4214164;28;5624;-80
2023/12/10 15:04:43;;;;;;;;;;;;;;;12.70;58.13;96951.66;4212061;28;5627;-79
2023/12/10 15:06:47;;;;;;;;;;;;;;;12.70;57.91;96951.66;4206297;28;5803;-80
2023/12/10 15:08:50;;;;;;;;;;;;;;;12.70;58.22;96953.50;4212226;28;5739;-81
2023/12/10 15:10:53;;;;;;;;;;;;;;;12.70;58.15;96956.97;4208349;28;5714;-81
2023/12/10 15:12:56;;;;;;;;;;;;;;;12.70;58.05;96958.78;4210707;28;5852;-82
2023/12/10 15:14:59;;;;;;;;;;;;;;;12.72;58.01;96954.09;4207835;28;5838;-82
2023/12/10 15:17:02;;;;;;;;;;;;;;;12.71;58.19;96963.91;4212795;28;5623;-81
2023/12/10 15:19:05;;;;;;;;;;;;;;;12.70;58.07;96966.75;4211758;28;5716;-81
2023/12/10 15:21:08;;;;;;;;;;;;;;;12.71;58.10;96976.34;4210010;28;5600;-80
2023/12/10 15:23:11;;;;;;;;;;;;;;;12.71;58.42;96979.81;4213249;28;5691;-80
2023/12/10 15:25:13;;;;;;;;;;;;;;;12.71;58.28;96969.19;4214733;28;5667;-81
2023/12/10 15:27:19;;;;;;;;;;;;;;;12.72;58.19;96967.38;4215150;28;5671;-80
2023/12/10 15:29:22;;;;;;;;;;;;;;;12.73;58.15;96969.00;4215576;28;5687;-80
2023/12/10 15:31:25;;;;;;;;;;;;;;;12.73;58.37;96961.03;4215545;28;5099;-80
2023/12/10 15:33:28;;;;;;;;;;;;;;;12.73;58.51;96961.84;4211279;28;5750;-81
2023/12/10 15:35:31;;;;;;;;;;;;;;;12.74;58.21;96979.41;4215274;28;5626;-80
2023/12/10 15:37:34;;;;;;;;;;;;;;;12.74;58.55;96979.41;4220808;28;5514;-69
2023/12/10 15:39:37;;;;;;;;;;;;;;;12.74;58.33;96960.84;4186529;28;5924;-71
2023/12/10 15:41:40;;;;;;;;;;;;;;;12.74;58.38;96958.19;4217163;28;5714;-73
2023/12/10 15:43:44;;;;;;;;;;;;;;;12.75;58.52;96959.81;4208459;28;7994;-66
2023/12/10 15:45:47;;;;;;;;;;;;;;;12.76;58.57;96953.47;4204315;28;5508;-69
2023/12/10 15:47:50;;;;;;;;;;;;;;;12.77;58.61;96957.75;4208849;28;5623;-69
2023/12/10 15:49:53;;;;;;;;;;;;;;;12.77;58.89;96951.66;4205022;28;5695;-70
2023/12/10 15:51:56;;;;;;;;;;;;;;;12.78;58.75;96950.63;4211977;28;5600;-70
2023/12/10 15:53:58;;;;;;;;;;;;;;;12.77;58.86;96947.16;4214024;28;5604;-70
2023/12/10 15:56:01;;;;;;;;;;;;;;;12.78;58.81;96943.47;4211463;28;5687;-69
2023/12/10 15:58:04;;;;;;;;;;;;;;;12.78;59.01;96954.09;4216327;28;5647;-69
2023/12/10 16:00:09;;;;;;;;;;;;;;;12.78;59.16;96945.31;4218731;28;5735;-72
2023/12/10 16:02:12;;;;;;;;;;;;;;;12.77;59.20;96933.06;4214836;28;5214;-71
2023/12/10 16:04:15;;;;;;;;;;;;;;;12.78;59.33;96938.16;4215788;28;7688;-73
2023/12/10 16:06:17;;;;;;;;;;;;;;;12.78;59.30;96942.66;4213684;28;7080;-72
2023/12/10 16:08:22;;;;;;;;;;;;;;;12.78;59.17;96940.81;4213949;28;5821;-67
2023/12/10 16:10:25;;;;;;;;;;;;;;;12.78;59.21;96943.47;4213668;28;5703;-70
2023/12/10 16:12:28;;;;;;;;;;;;;;;12.78;59.43;96950.63;4199736;28;5759;-66
2023/12/10 16:14:31;;;;;;;;;;;;;;;12.78;59.38;96948.78;4214220;28;5104;-72
2023/12/10 16:16:35;;;;;;;;;;;;;;;12.77;59.32;96944.50;4217363;28;7671;-66
2023/12/10 16:18:38;;;;;;;;;;;;;;;12.77;59.21;96941.84;4216468;28;5736;-70
2023/12/10 16:20:41;;;;;;;;;;;;;;;12.78;59.45;96950.63;4217877;28;5620;-70
2023/12/10 16:22:46;;;;;;;;;;;;;;;12.77;59.40;96956.94;4192225;28;5945;-67
2023/12/10 16:24:50;;;;;;;;;;;;;;;12.77;59.42;96949.00;4217202;27;5759;-66
2023/12/10 16:26:53;;;;;;;;;;;;;;;12.75;59.31;96938.59;4216322;28;5763;-66
2023/12/10 16:28:55;;;;;;;;;;;;;;;12.75;59.18;96932.47;4216328;28;5803;-66
2023/12/10 16:30:58;;;;;;;;;;;;;;;12.75;59.07;96920.00;4218087;28;5625;-67
2023/12/10 16:33:24;;;;;;;;;;;;;;;12.75;58.88;96912.06;4213367;28;5112;-68
2023/12/10 16:35:47;;;;;;;;;;;;;;;12.77;58.76;96923.28;4215173;28;5632;-66
2023/12/10 16:37:49;;;;;;;;;;;;;;;12.76;58.73;96905.72;4217723;28;5767;-66
2023/12/10 16:39:52;;;;;;;;;;;;;;;12.73;58.87;96892.88;4216002;28;5950;-73
2023/12/10 16:41:55;;;;;;;;;;;;;;;12.72;58.67;96891.25;4217220;28;6043;-72
2023/12/10 16:44:00;;;;;;;;;;;;;;;12.72;58.69;96890.44;4216924;28;7679;-73
2023/12/10 16:46:03;;;;;;;;;;;;;;;12.68;58.51;96876.75;4215416;28;5691;-68
2023/12/10 16:48:06;;;;;;;;;;;;;;;12.63;58.85;96871.25;4216850;28;5636;-70
2023/12/10 16:50:13;;;;;;;;;;;;;;;12.61;58.96;96860.03;4217443;28;5084;-71
2023/12/10 16:52:15;;;;;;;;;;;;;;;12.59;59.00;96875.34;4216175;28;7684;-71
2023/12/10 16:54:18;;;;;;;;;;;;;;;12.59;58.87;96885.94;4217634;28;5744;-72
2023/12/10 16:56:20;;;;;;;;;;;;;;;12.60;58.92;96886.78;4217617;28;6285;-72
2023/12/10 16:58:22;;;;;;;;;;;;;;;12.61;58.93;96894.50;4217828;28;5787;-70
2023/12/10 17:00:25;;;;;;;;;;;;;;;12.60;59.03;96914.09;4216619;28;6413;-69
2023/12/10 17:02:27;;;;;;;;;;;;;;;12.60;59.14;96914.09;4216216;28;5619;-69
2023/12/10 17:04:30;;;;;;;;;;;;;;;12.61;59.27;96897.16;4216115;28;5604;-71
2023/12/10 17:06:35;;;;;;;;;;;;;;;12.62;59.28;96896.16;4215290;28;5100;-65
2023/12/10 17:08:38;;;;;;;;;;;;;;;12.63;59.25;96913.69;4215777;28;5600;-65
2023/12/10 17:10:41;;;;;;;;;;;;;;;12.63;59.59;96908.38;4216231;28;5670;-68
2023/12/10 17:12:44;;;;;;;;;;;;;;;12.63;59.41;96905.72;4215389;28;5637;-68
2023/12/10 17:14:46;;;;;;;;;;;;;;;12.66;59.36;96893.88;4215234;28;5600;-67
2023/12/10 17:16:50;;;;;;;;;;;;;;;12.65;59.37;96895.72;4197875;28;5647;-68
2023/12/10 17:18:53;;;;;;;;;;;;;;;12.65;59.52;96898.38;4214391;28;5723;-71
2023/12/10 17:20:58;;;;;;;;;;;;;;;12.65;59.54;96910.81;4216818;28;5767;-71
2023/12/10 17:23:02;;;;;;;;;;;;;;;12.65;59.71;96898.38;4213643;28;5731;-64
2023/12/10 17:25:06;;;;;;;;;;;;;;;12.65;59.37;96882.47;4217046;28;5691;-66
2023/12/10 17:27:09;;;;;;;;;;;;;;;12.64;59.56;96867.56;4216050;28;5699;-74
2023/12/10 17:29:11;;;;;;;;;;;;;;;12.63;59.57;96841.25;4214854;28;6468;-72
2023/12/10 17:31:13;;;;;;;;;;;;;;;12.61;59.64;96814.13;4216320;28;5663;-70
2023/12/10 17:33:17;;;;;;;;;;;;;;;12.60;59.26;96826.59;4215345;28;5604;-70
2023/12/10 17:35:20;;;;;;;;;;;;;;;12.61;59.25;96856.56;4215340;28;5711;-72
2023/12/10 17:37:24;;;;;;;;;;;;;;;12.62;59.32;96858.19;4213114;28;5861;-71
2023/12/10 17:39:28;;;;;;;;;;;;;;;12.63;59.38;96847.38;4211288;28;5755;-67
2023/12/10 17:41:31;;;;;;;;;;;;;;;12.64;59.33;96841.06;4198634;28;5892;-67
2023/12/10 17:43:34;;;;;;;;;;;;;;;12.66;59.57;96848.81;4215720;28;5616;-67
2023/12/10 17:45:37;;;;;;;;;;;;;;;12.66;59.47;96840.84;4214852;28;5109;-71
2023/12/10 17:47:40;;;;;;;;;;;;;;;12.65;59.36;96844.53;4213520;28;5612;-71
2023/12/10 17:49:43;;;;;;;;;;;;;;;12.66;59.75;96848.81;4213914;28;5631;-71
2023/12/10 17:51:45;;;;;;;;;;;;;;;12.66;59.35;96836.34;4215190;28;5816;-73
2023/12/10 17:53:49;;;;;;;;;;;;;;;12.64;59.64;96830.44;4208492;28;5714;-69
2023/12/10 17:55:53;;;;;;;;;;;;;;;12.66;59.53;96830.25;4213747;28;5717;-69
2023/12/10 17:57:56;;;;;;;;;;;;;;;12.67;59.44;96830.03;4213952;28;5607;-72
2023/12/10 17:59:59;;;;;;;;;;;;;;;12.66;59.63;96817.78;4208315;28;5639;-74
2023/12/10 18:02:03;;;;;;;;;;;;;;;12.67;59.54;96824.72;4203574;28;5810;-66
2023/12/10 18:04:06;;;;;;;;;;;;;;;12.67;59.33;96805.34;4205160;28;5620;-73
2023/12/10 18:06:08;;;;;;;;;;;;;;;12.66;59.33;96809.84;4209565;28;5716;-70
2023/12/10 18:08:11;;;;;;;;;;;;;;;12.66;59.61;96811.66;4211341;28;5604;-68
2023/12/10 18:10:14;;;;;;;;;;;;;;;12.66;59.36;96831.06;4212566;28;5627;-66
2023/12/10 18:12:18;;;;;;;;;;;;;;;12.67;59.54;96826.56;4201808;28;5709;-65
2023/12/10 18:14:21;;;;;;;;;;;;;;;12.67;59.16;96832.69;4215191;28;5615;-66
2023/12/10 18:16:25;;;;;;;;;;;;;;;12.68;59.23;96846.75;4208013;28;5627;-65
2023/12/10 18:18:28;;;;;;;;;;;;;;;12.67;59.41;96835.34;4210427;28;5100;-64
2023/12/10 18:20:31;;;;;;;;;;;;;;;12.70;59.32;96842.09;4208272;28;5506;-67
2023/12/10 18:22:33;;;;;;;;;;;;;;;12.70;59.13;96819.03;4209536;28;7809;-67
2023/12/10 18:24:36;;;;;;;;;;;;;;;12.70;58.96;96813.72;4213388;28;5707;-65
2023/12/10 18:26:40;;;;;;;;;;;;;;;12.70;59.06;96807.59;4216323;28;5618;-65
2023/12/10 18:28:43;;;;;;;;;;;;;;;12.72;59.03;96822.28;4216831;28;5683;-65
2023/12/10 18:30:46;;;;;;;;;;;;;;;12.72;59.21;96821.47;4213246;28;5741;-64
2023/12/10 18:32:49;;;;;;;;;;;;;;;12.72;59.07;96811.69;4211288;28;5539;-66
2023/12/10 18:34:52;;;;;;;;;;;;;;;12.74;59.19;96808.81;4215925;28;5621;-65
2023/12/10 18:36:55;;;;;;;;;;;;;;;12.76;59.00;96823.50;4217498;28;5108;-67
2023/12/10 18:38:59;;;;;;;;;;;;;;;12.77;58.90;96830.44;4216971;28;5601;-71